Suederoog — ZDHC8 — position and weather

sailwx.info

Track history (hours):
 
Tides and Currents Weather Stations Pressure Air Temp Water Temp Dewpoint Dewpoint Depression Visibility Wind Speed Wind Dir Waves Ship Positions

Suederoog

Last reported at 2017-Oct-15 10:42 UTC. Time now 2017-Oct-19 05:41 UTC.
Position N 36°08' W 006°20'.

Length 161 m; draft 9.2 m.

Type: Cargo ship. MMSI: 236300000.

Date/timePositionNaut miles runAvg speedWind from/ knotsBaromVisibWave heightAir tempDewpointWater temp
2017-Oct-15 10:42N 36°08' W 006°20'0 0.5
2017-Oct-15 10:30N 36°08' W 006°20'610.8
2017-Oct-15 09:58N 36°02' W 006°17'612.4
2017-Oct-15 09:29N 35°58' W 006°12'1912.8
2017-Oct-15 08:02N 35°58' W 005°49'1113.7
2017-Oct-15 07:16N 35°58' W 005°36'313.4
2017-Oct-15 07:00N 35°58' W 005°31'77 1.9
2017-Oct-13 13:39N 35°15' W 006°51'210.3
2017-Oct-13 13:26N 35°14' W 006°53'610.6
2017-Oct-13 12:49N 35°10' W 006°59'310.8
2017-Oct-13 12:30N 35°08' W 007°02'610.8
2017-Oct-13 11:59N 35°04' W 007°07'1110.6
2017-Oct-13 10:57N 34°57' W 007°18'510.9
2017-Oct-13 10:30N 34°54' W 007°22'3711.0
2017-Oct-13 07:09N 34°30' W 007°56'511.3
2017-Oct-13 06:43N 34°26' W 008°01'611.1
2017-Oct-13 06:12N 34°23' W 008°06'411.0
2017-Oct-13 05:49N 34°20' W 008°10'1311.0
2017-Oct-13 04:38N 34°12' W 008°22'210.6
2017-Oct-13 04:28N 34°11' W 008°24'1211.2
2017-Oct-13 03:23N 34°03' W 008°35'1711.0
2017-Oct-13 01:51N 33°52' W 008°50'711.1
2017-Oct-13 01:14N 33°48' W 008°57'310.7
2017-Oct-13 00:58N 33°46' W 008°59'2411.0
2017-Oct-12 22:50N 33°31' W 009°21'411.0
2017-Oct-12 22:28N 33°28' W 009°25'80 9.0
2017-Oct-12 13:36N 32°32' W 010°33'511.2
2017-Oct-12 13:10N 32°29' W 010°37'211.2
2017-Oct-12 13:00N 32°28' W 010°38'611.2
2017-Oct-12 12:30N 32°23' W 010°43'711.1
2017-Oct-12 11:55N 32°19' W 010°48'410.9
2017-Oct-12 11:30N 32°16' W 010°52'2114.2
2017-Oct-12 10:02N 32°00' W 011°09'117.6
2017-Oct-12 10:00N 32°00' W 011°10'815.7
2017-Oct-12 09:30N 31°54' W 011°16'611.3
2017-Oct-12 08:58N 31°50' W 011°21'710.8
2017-Oct-12 08:20N 31°45' W 011°26'410.7
2017-Oct-12 08:00N 31°43' W 011°29'510.8
2017-Oct-12 07:30N 31°39' W 011°33'611.1
2017-Oct-12 06:59N 31°34' W 011°38'711.0
2017-Oct-12 06:22N 31°29' W 011°44'410.7
2017-Oct-12 06:00N 31°27' W 011°47'510.7
2017-Oct-12 05:30N 31°23' W 011°51'610.6
2017-Oct-12 04:58N 31°19' W 011°56'511.2
2017-Oct-12 04:30N 31°15' W 011°60'1311.0
2017-Oct-12 03:19N 31°06' W 012°11'310.8
2017-Oct-12 03:00N 31°03' W 012°14'510.9
2017-Oct-12 02:30N 30°59' W 012°18'510.9
2017-Oct-12 02:00N 30°55' W 012°22'611.2
2017-Oct-12 01:27N 30°51' W 012°27'1111.0
2017-Oct-12 00:29N 30°43' W 012°36'510.9
2017-Oct-11 23:59N 30°39' W 012°40'610.8
2017-Oct-11 23:28N 30°35' W 012°45'510.6
2017-Oct-11 23:00N 30°31' W 012°48'510.6
2017-Oct-11 22:30N 30°27' W 012°52'510.7
2017-Oct-11 22:00N 30°23' W 012°56'2 0.7
2017-Oct-11 19:07N 30°25' W 012°56'1 5.6
2017-Oct-11 18:59N 30°24' W 012°57'511.0
2017-Oct-11 18:30N 30°20' W 013°01'611.0
2017-Oct-11 18:00N 30°16' W 013°06'511.0
2017-Oct-11 17:30N 30°12' W 013°10'611.0
2017-Oct-11 16:56N 30°08' W 013°15'20310.4
2017-Oct-10 21:22N 27°16' W 015°20'0 0.2
2017-Oct-10 20:55N 27°16' W 015°20'0 0.3
2017-Oct-10 20:27N 27°17' W 015°20'0 0.6
2017-Oct-10 19:58N 27°17' W 015°20'4 6.7
2017-Oct-10 19:26N 27°14' W 015°22'511.1
2017-Oct-10 19:00N 27°09' W 015°24'1511.2
2017-Oct-10 17:38N 26°56' W 015°32'  
Track history (hours):
 
Tides and Currents Weather Stations Pressure Air Temp Water Temp Dewpoint Dewpoint Depression Visibility Wind Speed Wind Dir Waves Ship Positions

Suederoog

Last reported at 2017-Oct-15 10:42 UTC. Time now 2017-Oct-19 05:41 UTC.
Position N 36°08' W 006°20'.

Length 161 m; draft 9.2 m.

Type: Cargo ship. MMSI: 236300000.

Date/timePositionNaut miles runAvg speedWind from/ knotsBaromVisibWave heightAir tempDewpointWater temp
2017-Oct-15 10:42N 36°08' W 006°20'0 0.5
2017-Oct-15 10:30N 36°08' W 006°20'610.8
2017-Oct-15 09:58N 36°02' W 006°17'612.4
2017-Oct-15 09:29N 35°58' W 006°12'1912.8
2017-Oct-15 08:02N 35°58' W 005°49'1113.7
2017-Oct-15 07:16N 35°58' W 005°36'313.4
2017-Oct-15 07:00N 35°58' W 005°31'77 1.9
2017-Oct-13 13:39N 35°15' W 006°51'210.3
2017-Oct-13 13:26N 35°14' W 006°53'610.6
2017-Oct-13 12:49N 35°10' W 006°59'310.8
2017-Oct-13 12:30N 35°08' W 007°02'610.8
2017-Oct-13 11:59N 35°04' W 007°07'1110.6
2017-Oct-13 10:57N 34°57' W 007°18'510.9
2017-Oct-13 10:30N 34°54' W 007°22'3711.0
2017-Oct-13 07:09N 34°30' W 007°56'511.3
2017-Oct-13 06:43N 34°26' W 008°01'611.1
2017-Oct-13 06:12N 34°23' W 008°06'411.0
2017-Oct-13 05:49N 34°20' W 008°10'1311.0
2017-Oct-13 04:38N 34°12' W 008°22'210.6
2017-Oct-13 04:28N 34°11' W 008°24'1211.2
2017-Oct-13 03:23N 34°03' W 008°35'1711.0
2017-Oct-13 01:51N 33°52' W 008°50'711.1
2017-Oct-13 01:14N 33°48' W 008°57'310.7
2017-Oct-13 00:58N 33°46' W 008°59'2411.0
2017-Oct-12 22:50N 33°31' W 009°21'411.0
2017-Oct-12 22:28N 33°28' W 009°25'80 9.0
2017-Oct-12 13:36N 32°32' W 010°33'511.2
2017-Oct-12 13:10N 32°29' W 010°37'211.2
2017-Oct-12 13:00N 32°28' W 010°38'611.2
2017-Oct-12 12:30N 32°23' W 010°43'711.1
2017-Oct-12 11:55N 32°19' W 010°48'410.9
2017-Oct-12 11:30N 32°16' W 010°52'2114.2
2017-Oct-12 10:02N 32°00' W 011°09'117.6
2017-Oct-12 10:00N 32°00' W 011°10'815.7
2017-Oct-12 09:30N 31°54' W 011°16'611.3
2017-Oct-12 08:58N 31°50' W 011°21'710.8
2017-Oct-12 08:20N 31°45' W 011°26'410.7
2017-Oct-12 08:00N 31°43' W 011°29'510.8
2017-Oct-12 07:30N 31°39' W 011°33'611.1
2017-Oct-12 06:59N 31°34' W 011°38'711.0
2017-Oct-12 06:22N 31°29' W 011°44'410.7
2017-Oct-12 06:00N 31°27' W 011°47'510.7
2017-Oct-12 05:30N 31°23' W 011°51'610.6
2017-Oct-12 04:58N 31°19' W 011°56'511.2
2017-Oct-12 04:30N 31°15' W 011°60'1311.0
2017-Oct-12 03:19N 31°06' W 012°11'310.8
2017-Oct-12 03:00N 31°03' W 012°14'510.9
2017-Oct-12 02:30N 30°59' W 012°18'510.9
2017-Oct-12 02:00N 30°55' W 012°22'611.2
2017-Oct-12 01:27N 30°51' W 012°27'1111.0
2017-Oct-12 00:29N 30°43' W 012°36'510.9
2017-Oct-11 23:59N 30°39' W 012°40'610.8
2017-Oct-11 23:28N 30°35' W 012°45'510.6
2017-Oct-11 23:00N 30°31' W 012°48'510.6
2017-Oct-11 22:30N 30°27' W 012°52'510.7
2017-Oct-11 22:00N 30°23' W 012°56'2 0.7
2017-Oct-11 19:07N 30°25' W 012°56'1 5.6
2017-Oct-11 18:59N 30°24' W 012°57'511.0
2017-Oct-11 18:30N 30°20' W 013°01'611.0
2017-Oct-11 18:00N 30°16' W 013°06'511.0
2017-Oct-11 17:30N 30°12' W 013°10'611.0
2017-Oct-11 16:56N 30°08' W 013°15'20310.4
2017-Oct-10 21:22N 27°16' W 015°20'0 0.2
2017-Oct-10 20:55N 27°16' W 015°20'0 0.3
2017-Oct-10 20:27N 27°17' W 015°20'0 0.6
2017-Oct-10 19:58N 27°17' W 015°20'4 6.7
2017-Oct-10 19:26N 27°14' W 015°22'511.1
2017-Oct-10 19:00N 27°09' W 015°24'1511.2
2017-Oct-10 17:38N 26°56' W 015°32'  

Dump ship's entire track history